sensor_id;sensor_type;location;lat;lon;timestamp;pressure;altitude;pressure_sealevel;temperature;humidity
22031;BME280;11179;52.106;21.024;2023-07-24T00:01:12;99582.97;;;20.45;52.72
22031;BME280;11179;52.106;21.024;2023-07-24T00:03:37;99586.09;;;20.43;52.95
22031;BME280;11179;52.106;21.024;2023-07-24T00:06:02;99589.84;;;20.47;52.66
22031;BME280;11179;52.106;21.024;2023-07-24T00:08:28;99583.09;;;20.48;52.66
22031;BME280;11179;52.106;21.024;2023-07-24T00:10:53;99576.72;;;20.48;52.65
22031;BME280;11179;52.106;21.024;2023-07-24T00:13:19;99575.06;;;20.47;52.65
22031;BME280;11179;52.106;21.024;2023-07-24T00:15:44;99585.75;;;20.45;52.56
22031;BME280;11179;52.106;21.024;2023-07-24T00:18:09;99581.34;;;20.44;53.15
22031;BME280;11179;52.106;21.024;2023-07-24T00:20:35;99578.06;;;20.42;53.34
22031;BME280;11179;52.106;21.024;2023-07-24T00:23:00;99581.19;;;20.40;52.97
22031;BME280;11179;52.106;21.024;2023-07-24T00:25:25;99579.91;;;20.37;53.16
22031;BME280;11179;52.106;21.024;2023-07-24T00:27:51;99583.41;;;20.34;53.15
22031;BME280;11179;52.106;21.024;2023-07-24T00:30:16;99592.09;;;20.33;53.25
22031;BME280;11179;52.106;21.024;2023-07-24T00:32:41;99590.81;;;20.30;53.32
22031;BME280;11179;52.106;21.024;2023-07-24T00:35:07;99586.38;;;20.29;53.63
22031;BME280;11179;52.106;21.024;2023-07-24T00:37:33;99597.41;;;20.26;53.87
22031;BME280;11179;52.106;21.024;2023-07-24T00:39:58;99600.06;;;20.22;54.11
22031;BME280;11179;52.106;21.024;2023-07-24T00:42:23;99593.41;;;20.15;53.92
22031;BME280;11179;52.106;21.024;2023-07-24T00:44:49;99600.28;;;20.17;54.23
22031;BME280;11179;52.106;21.024;2023-07-24T00:47:14;99609.31;;;20.14;54.15
22031;BME280;11179;52.106;21.024;2023-07-24T00:49:40;99595.22;;;20.11;54.34
22031;BME280;11179;52.106;21.024;2023-07-24T00:52:06;99602.66;;;20.07;54.56
22031;BME280;11179;52.106;21.024;2023-07-24T00:54:32;99604.97;;;20.04;54.86
22031;BME280;11179;52.106;21.024;2023-07-24T00:56:58;99607.59;;;20.01;54.69
22031;BME280;11179;52.106;21.024;2023-07-24T00:59:23;99613.81;;;19.98;55.07
22031;BME280;11179;52.106;21.024;2023-07-24T01:01:49;99608.94;;;19.95;54.95
22031;BME280;11179;52.106;21.024;2023-07-24T01:04:14;99612.88;;;19.94;54.55
22031;BME280;11179;52.106;21.024;2023-07-24T01:06:40;99611.72;;;19.95;54.31
22031;BME280;11179;52.106;21.024;2023-07-24T01:09:05;99617.31;;;19.95;54.20
22031;BME280;11179;52.106;21.024;2023-07-24T01:11:41;99616.97;;;19.96;53.98
22031;BME280;11179;52.106;21.024;2023-07-24T01:14:13;99612.69;;;19.99;53.46
22031;BME280;11179;52.106;21.024;2023-07-24T01:16:42;99616.78;;;20.01;53.35
22031;BME280;11179;52.106;21.024;2023-07-24T01:22:34;99617.75;;;20.06;52.64
22031;BME280;11179;52.106;21.024;2023-07-24T01:27:34;99617.75;;;20.06;52.04
22031;BME280;11179;52.106;21.024;2023-07-24T01:30:00;99617.41;;;20.07;52.02
22031;BME280;11179;52.106;21.024;2023-07-24T01:32:25;99619.03;;;20.08;51.62
22031;BME280;11179;52.106;21.024;2023-07-24T01:34:51;99615.09;;;20.09;51.37
22031;BME280;11179;52.106;21.024;2023-07-24T01:37:20;99613.94;;;20.10;51.24
22031;BME280;11179;52.106;21.024;2023-07-24T01:39:46;99611.59;;;20.12;51.33
22031;BME280;11179;52.106;21.024;2023-07-24T01:42:12;99610.47;;;20.13;51.02
22031;BME280;11179;52.106;21.024;2023-07-24T01:44:38;99610.47;;;20.13;50.86
22031;BME280;11179;52.106;21.024;2023-07-24T01:47:03;99610.47;;;20.13;50.65
22031;BME280;11179;52.106;21.024;2023-07-24T01:49:29;99607.66;;;20.13;50.75
22031;BME280;11179;52.106;21.024;2023-07-24T01:51:54;99603.25;;;20.12;50.75
22031;BME280;11179;52.106;21.024;2023-07-24T01:54:19;99608.81;;;20.12;50.50
22031;BME280;11179;52.106;21.024;2023-07-24T01:56:44;99607.56;;;20.10;50.33
22031;BME280;11179;52.106;21.024;2023-07-24T01:59:10;99607.91;;;20.08;49.93
22031;BME280;11179;52.106;21.024;2023-07-24T02:01:35;99603.13;;;20.09;49.91
22031;BME280;11179;52.106;21.024;2023-07-24T02:04:01;99603.97;;;20.09;49.70
22031;BME280;11179;52.106;21.024;2023-07-24T02:06:26;99603.25;;;20.12;49.57
22031;BME280;11179;52.106;21.024;2023-07-24T02:08:52;99604.06;;;20.13;49.13
22031;BME280;11179;52.106;21.024;2023-07-24T02:11:17;99600.13;;;20.14;48.95
22031;BME280;11179;52.106;21.024;2023-07-24T02:13:46;99599.44;;;20.17;48.78
22031;BME280;11179;52.106;21.024;2023-07-24T02:16:12;99603.53;;;20.19;48.56
22031;BME280;11179;52.106;21.024;2023-07-24T02:18:40;99600.75;;;20.19;48.10
22031;BME280;11179;52.106;21.024;2023-07-24T02:21:06;99603.53;;;20.19;48.09
22031;BME280;11179;52.106;21.024;2023-07-24T02:23:32;99596.81;;;20.20;48.39
22031;BME280;11179;52.106;21.024;2023-07-24T02:25:57;99595.50;;;20.18;48.27
22031;BME280;11179;52.106;21.024;2023-07-24T02:28:22;99593.06;;;20.16;48.16
22031;BME280;11179;52.106;21.024;2023-07-24T02:30:48;99588.97;;;20.14;47.99
22031;BME280;11179;52.106;21.024;2023-07-24T02:33:13;99585.72;;;20.12;47.83
22031;BME280;11179;52.106;21.024;2023-07-24T02:35:40;99595.59;;;20.09;47.74
22031;BME280;11179;52.106;21.024;2023-07-24T02:38:06;99603.47;;;20.07;47.61
22031;BME280;11179;52.106;21.024;2023-07-24T02:40:31;99603.81;;;20.06;47.48
22031;BME280;11179;52.106;21.024;2023-07-24T02:42:56;99602.19;;;20.04;47.27
22031;BME280;11179;52.106;21.024;2023-07-24T02:45:22;99597.63;;;20.00;47.44
22031;BME280;11179;52.106;21.024;2023-07-24T02:47:47;99600.41;;;20.00;47.13
22031;BME280;11179;52.106;21.024;2023-07-24T02:50:12;99592.22;;;19.95;46.96
22031;BME280;11179;52.106;21.024;2023-07-24T02:52:37;99593.38;;;19.94;46.88
22031;BME280;11179;52.106;21.024;2023-07-24T02:55:03;99588.50;;;19.91;46.97
22031;BME280;11179;52.106;21.024;2023-07-24T02:57:28;99596.84;;;19.91;46.82
22031;BME280;11179;52.106;21.024;2023-07-24T02:59:54;99600.13;;;19.93;46.80
22031;BME280;11179;52.106;21.024;2023-07-24T03:02:19;99603.56;;;19.90;46.70
22031;BME280;11179;52.106;21.024;2023-07-24T03:04:44;99602.56;;;19.94;46.51
22031;BME280;11179;52.106;21.024;2023-07-24T03:07:10;99605.00;;;19.96;46.52
22031;BME280;11179;52.106;21.024;2023-07-24T03:09:35;99605.47;;;19.98;46.33
22031;BME280;11179;52.106;21.024;2023-07-24T03:12:00;99609.91;;;19.99;46.77
22031;BME280;11179;52.106;21.024;2023-07-24T03:14:25;99611.22;;;20.01;46.43
22031;BME280;11179;52.106;21.024;2023-07-24T03:16:51;99612.50;;;20.04;46.30
22031;BME280;11179;52.106;21.024;2023-07-24T03:19:16;99614.63;;;20.07;46.62
22031;BME280;11179;52.106;21.024;2023-07-24T03:21:42;99622.97;;;20.07;46.48
22031;BME280;11179;52.106;21.024;2023-07-24T03:24:08;99628.34;;;20.12;46.51
22031;BME280;11179;52.106;21.024;2023-07-24T03:26:33;99623.25;;;20.14;46.34
22031;BME280;11179;52.106;21.024;2023-07-24T03:28:59;99622.81;;;20.24;46.19
22031;BME280;11179;52.106;21.024;2023-07-24T03:31:25;99619.16;;;20.32;46.31
22031;BME280;11179;52.106;21.024;2023-07-24T03:33:50;99624.06;;;20.35;46.44
22031;BME280;11179;52.106;21.024;2023-07-24T03:36:16;99621.03;;;20.40;46.26
22031;BME280;11179;52.106;21.024;2023-07-24T03:38:41;99620.16;;;20.49;46.19
22031;BME280;11179;52.106;21.024;2023-07-24T03:41:06;99630.88;;;20.59;46.15
22031;BME280;11179;52.106;21.024;2023-07-24T03:43:31;99634.63;;;20.63;45.98
22031;BME280;11179;52.106;21.024;2023-07-24T03:45:57;99638.56;;;20.62;46.19
22031;BME280;11179;52.106;21.024;2023-07-24T03:48:22;99642.19;;;20.62;45.89
22031;BME280;11179;52.106;21.024;2023-07-24T03:50:49;99638.56;;;20.62;46.07
22031;BME280;11179;52.106;21.024;2023-07-24T03:53:15;99639.31;;;20.71;46.07
22031;BME280;11179;52.106;21.024;2023-07-24T03:55:40;99628.53;;;20.82;46.04
22031;BME280;11179;52.106;21.024;2023-07-24T03:58:05;99632.88;;;20.91;46.09
22031;BME280;11179;52.106;21.024;2023-07-24T04:00:30;99622.91;;;21.02;45.58
22031;BME280;11179;52.106;21.024;2023-07-24T04:02:56;99633.63;;;21.13;46.09
22031;BME280;11179;52.106;21.024;2023-07-24T04:05:21;99631.66;;;21.13;46.39
22031;BME280;11179;52.106;21.024;2023-07-24T04:07:47;99623.63;;;21.12;46.44
22031;BME280;11179;52.106;21.024;2023-07-24T04:10:12;99629.06;;;21.08;46.56
22031;BME280;11179;52.106;21.024;2023-07-24T04:12:37;99629.41;;;21.06;47.14
22031;BME280;11179;52.106;21.024;2023-07-24T04:15:03;99628.94;;;21.04;47.13
22031;BME280;11179;52.106;21.024;2023-07-24T04:17:28;99628.03;;;21.00;47.14
22031;BME280;11179;52.106;21.024;2023-07-24T04:19:53;99631.50;;;20.97;47.47
22031;BME280;11179;52.106;21.024;2023-07-24T04:22:19;99630.34;;;20.98;47.50
22031;BME280;11179;52.106;21.024;2023-07-24T04:24:44;99625.00;;;21.05;47.79
22031;BME280;11179;52.106;21.024;2023-07-24T04:27:09;99619.66;;;21.13;47.65
22031;BME280;11179;52.106;21.024;2023-07-24T04:29:35;99625.47;;;21.20;47.73
22031;BME280;11179;52.106;21.024;2023-07-24T04:32:00;99624.56;;;21.28;47.53
22031;BME280;11179;52.106;21.024;2023-07-24T04:34:25;99625.94;;;21.34;47.57
22031;BME280;11179;52.106;21.024;2023-07-24T04:36:51;99624.09;;;21.38;47.30
22031;BME280;11179;52.106;21.024;2023-07-24T04:39:16;99623.06;;;21.42;47.42
22031;BME280;11179;52.106;21.024;2023-07-24T04:41:41;99623.16;;;21.46;47.68
22031;BME280;11179;52.106;21.024;2023-07-24T04:44:06;99629.56;;;21.46;47.22
22031;BME280;11179;52.106;21.024;2023-07-24T04:46:32;99632.69;;;21.45;46.75
22031;BME280;11179;52.106;21.024;2023-07-24T04:48:57;99642.03;;;21.49;46.93
22031;BME280;11179;52.106;21.024;2023-07-24T04:51:22;99633.09;;;21.56;47.41
22031;BME280;11179;52.106;21.024;2023-07-24T04:53:48;99635.91;;;21.68;47.58
22031;BME280;11179;52.106;21.024;2023-07-24T04:56:13;99634.09;;;21.88;47.81
22031;BME280;11179;52.106;21.024;2023-07-24T04:58:38;99635.91;;;22.32;47.17
22031;BME280;11179;52.106;21.024;2023-07-24T05:01:04;99636.84;;;22.80;46.34
22031;BME280;11179;52.106;21.024;2023-07-24T05:03:30;99626.28;;;23.01;45.53
22031;BME280;11179;52.106;21.024;2023-07-24T05:05:55;99628.09;;;23.09;45.23
22031;BME280;11179;52.106;21.024;2023-07-24T05:08:21;99625.38;;;23.13;45.08
22031;BME280;11179;52.106;21.024;2023-07-24T05:10:46;99625.03;;;23.14;44.75
22031;BME280;11179;52.106;21.024;2023-07-24T05:13:12;99623.31;;;23.10;44.21
22031;BME280;11179;52.106;21.024;2023-07-24T05:15:37;99630.16;;;22.97;43.84
22031;BME280;11179;52.106;21.024;2023-07-24T05:18:02;99626.75;;;22.91;44.21
22031;BME280;11179;52.106;21.024;2023-07-24T05:20:28;99623.78;;;22.84;43.90
22031;BME280;11179;52.106;21.024;2023-07-24T05:22:53;99622.03;;;22.79;44.20
22031;BME280;11179;52.106;21.024;2023-07-24T05:25:18;99622.88;;;22.80;43.98
22031;BME280;11179;52.106;21.024;2023-07-24T05:27:44;99620.53;;;22.82;44.43
22031;BME280;11179;52.106;21.024;2023-07-24T05:30:09;99623.78;;;22.84;44.29
22031;BME280;11179;52.106;21.024;2023-07-24T05:32:34;99627.16;;;22.90;44.66
22031;BME280;11179;52.106;21.024;2023-07-24T05:35:00;99631.69;;;22.94;44.89
22031;BME280;11179;52.106;21.024;2023-07-24T05:37:25;99622.78;;;22.92;44.43
22031;BME280;11179;52.106;21.024;2023-07-24T05:39:50;99620.72;;;22.89;44.51
22031;BME280;11179;52.106;21.024;2023-07-24T05:42:16;99620.72;;;22.89;44.50
22031;BME280;11179;52.106;21.024;2023-07-24T05:44:41;99633.66;;;22.94;43.95
22031;BME280;11179;52.106;21.024;2023-07-24T05:47:07;99627.00;;;22.98;44.12
22031;BME280;11179;52.106;21.024;2023-07-24T05:49:32;99631.16;;;23.04;43.56
22031;BME280;11179;52.106;21.024;2023-07-24T05:51:57;99636.50;;;23.09;43.77
22031;BME280;11179;52.106;21.024;2023-07-24T05:54:23;99636.22;;;23.14;43.40
22031;BME280;11179;52.106;21.024;2023-07-24T05:56:48;99642.00;;;23.21;42.99
22031;BME280;11179;52.106;21.024;2023-07-24T05:59:13;99646.34;;;23.35;43.27
22031;BME280;11179;52.106;21.024;2023-07-24T06:01:39;99638.19;;;23.45;42.95
22031;BME280;11179;52.106;21.024;2023-07-24T06:04:04;99647.63;;;23.53;42.96
22031;BME280;11179;52.106;21.024;2023-07-24T06:06:32;99642.66;;;23.62;42.63
22031;BME280;11179;52.106;21.024;2023-07-24T06:08:57;99641.72;;;23.74;42.70
22031;BME280;11179;52.106;21.024;2023-07-24T06:11:23;99642.78;;;23.85;42.26
22031;BME280;11179;52.106;21.024;2023-07-24T06:13:48;99649.31;;;23.89;42.13
22031;BME280;11179;52.106;21.024;2023-07-24T06:16:13;99638.09;;;23.89;41.79
22031;BME280;11179;52.106;21.024;2023-07-24T06:18:39;99638.91;;;23.89;42.03
22031;BME280;11179;52.106;21.024;2023-07-24T06:21:04;99627.59;;;23.86;41.76
22031;BME280;11179;52.106;21.024;2023-07-24T06:23:29;99631.88;;;23.80;41.79
22031;BME280;11179;52.106;21.024;2023-07-24T06:25:58;99637.66;;;23.71;41.52
22031;BME280;11179;52.106;21.024;2023-07-24T06:28:24;99641.59;;;23.67;41.25
22031;BME280;11179;52.106;21.024;2023-07-24T06:30:52;99652.06;;;23.70;41.22
22031;BME280;11179;52.106;21.024;2023-07-24T06:33:17;99644.19;;;23.75;41.28
22031;BME280;11179;52.106;21.024;2023-07-24T06:35:42;99639.56;;;23.83;41.43
22031;BME280;11179;52.106;21.024;2023-07-24T06:38:08;99647.41;;;23.93;41.00
22031;BME280;11179;52.106;21.024;2023-07-24T06:40:33;99642.13;;;24.07;41.08
22031;BME280;11179;52.106;21.024;2023-07-24T06:42:59;99639.09;;;24.16;40.39
22031;BME280;11179;52.106;21.024;2023-07-24T06:45:24;99643.97;;;24.35;40.27
22031;BME280;11179;52.106;21.024;2023-07-24T06:47:50;99642.69;;;24.51;40.21
22031;BME280;11179;52.106;21.024;2023-07-24T06:50:15;99636.50;;;24.61;40.24
22031;BME280;11179;52.106;21.024;2023-07-24T06:52:40;99637.59;;;24.76;39.72
22031;BME280;11179;52.106;21.024;2023-07-24T06:55:06;99631.59;;;24.78;39.81
22031;BME280;11179;52.106;21.024;2023-07-24T06:57:31;99636.91;;;24.83;39.77
22031;BME280;11179;52.106;21.024;2023-07-24T06:59:56;99642.97;;;24.85;40.07
22031;BME280;11179;52.106;21.024;2023-07-24T07:02:22;99644.59;;;24.86;39.83
22031;BME280;11179;52.106;21.024;2023-07-24T07:04:47;99636.19;;;24.86;39.40
22031;BME280;11179;52.106;21.024;2023-07-24T07:07:16;99630.63;;;24.89;39.18
22031;BME280;11179;52.106;21.024;2023-07-24T07:09:41;99629.00;;;24.88;39.21
22031;BME280;11179;52.106;21.024;2023-07-24T07:12:06;99639.72;;;25.02;39.35
22031;BME280;11179;52.106;21.024;2023-07-24T07:14:32;99631.97;;;25.18;39.29
22031;BME280;11179;52.106;21.024;2023-07-24T07:16:57;99635.34;;;25.50;39.17
22031;BME280;11179;52.106;21.024;2023-07-24T07:19:22;99638.72;;;25.82;38.47
22031;BME280;11179;52.106;21.024;2023-07-24T07:21:48;99623.81;;;26.08;37.69
22031;BME280;11179;52.106;21.024;2023-07-24T07:24:13;99631.66;;;26.22;37.52
22031;BME280;11179;52.106;21.024;2023-07-24T07:26:38;99635.56;;;26.44;36.78
22031;BME280;11179;52.106;21.024;2023-07-24T07:29:03;99627.97;;;26.48;36.92
22031;BME280;11179;52.106;21.024;2023-07-24T07:31:29;99626.88;;;26.56;36.85
22031;BME280;11179;52.106;21.024;2023-07-24T07:33:54;99626.22;;;26.69;36.70
22031;BME280;11179;52.106;21.024;2023-07-24T07:36:19;99624.78;;;26.83;37.05
22031;BME280;11179;52.106;21.024;2023-07-24T07:38:47;99619.41;;;27.48;35.88
22031;BME280;11179;52.106;21.024;2023-07-24T07:41:12;99622.03;;;28.40;35.18
22031;BME280;11179;52.106;21.024;2023-07-24T07:43:37;99612.56;;;29.05;33.84
22031;BME280;11179;52.106;21.024;2023-07-24T07:46:04;99622.31;;;29.29;33.44
22031;BME280;11179;52.106;21.024;2023-07-24T07:48:29;99624.75;;;29.37;33.38
22031;BME280;11179;52.106;21.024;2023-07-24T07:50:54;99620.28;;;29.50;33.34
22031;BME280;11179;52.106;21.024;2023-07-24T07:53:20;99614.25;;;29.66;32.77
22031;BME280;11179;52.106;21.024;2023-07-24T07:55:45;99620.72;;;29.67;32.81
22031;BME280;11179;52.106;21.024;2023-07-24T07:58:11;99622.31;;;29.46;32.56
22031;BME280;11179;52.106;21.024;2023-07-24T08:00:36;99622.31;;;29.46;32.58
22031;BME280;11179;52.106;21.024;2023-07-24T08:03:04;99611.41;;;29.63;32.37
22031;BME280;11179;52.106;21.024;2023-07-24T08:05:30;99617.06;;;29.84;31.55
22031;BME280;11179;52.106;21.024;2023-07-24T08:07:57;99617.06;;;29.87;31.46
22031;BME280;11179;52.106;21.024;2023-07-24T08:10:22;99606.91;;;30.18;31.14
22031;BME280;11179;52.106;21.024;2023-07-24T08:12:47;99614.13;;;30.30;30.87
22031;BME280;11179;52.106;21.024;2023-07-24T08:15:13;99611.72;;;30.14;30.82
22031;BME280;11179;52.106;21.024;2023-07-24T08:17:38;99605.25;;;30.17;30.80
22031;BME280;11179;52.106;21.024;2023-07-24T08:20:04;99604.38;;;30.42;30.35
22031;BME280;11179;52.106;21.024;2023-07-24T08:22:29;99615.13;;;30.82;30.58
22031;BME280;11179;52.106;21.024;2023-07-24T08:24:54;99611.22;;;31.28;29.30
22031;BME280;11179;52.106;21.024;2023-07-24T08:27:20;99614.97;;;31.62;28.65
22031;BME280;11179;52.106;21.024;2023-07-24T08:29:45;99608.81;;;32.12;28.90
22031;BME280;11179;52.106;21.024;2023-07-24T08:32:11;99612.31;;;32.61;27.93
22031;BME280;11179;52.106;21.024;2023-07-24T08:34:36;99609.38;;;32.68;27.83
22031;BME280;11179;52.106;21.024;2023-07-24T08:37:01;99612.69;;;32.93;27.62
22031;BME280;11179;52.106;21.024;2023-07-24T08:39:27;99607.03;;;33.17;27.26
22031;BME280;11179;52.106;21.024;2023-07-24T08:41:54;99600.63;;;33.13;27.37
22031;BME280;11179;52.106;21.024;2023-07-24T08:44:20;99596.56;;;33.14;26.88
22031;BME280;11179;52.106;21.024;2023-07-24T08:46:47;99593.94;;;33.23;26.86
22031;BME280;11179;52.106;21.024;2023-07-24T08:49:14;99591.66;;;33.41;26.86
22031;BME280;11179;52.106;21.024;2023-07-24T08:51:41;99589.97;;;33.67;26.36
22031;BME280;11179;52.106;21.024;2023-07-24T08:54:07;99597.56;;;33.77;26.36
22031;BME280;11179;52.106;21.024;2023-07-24T08:56:33;99590.50;;;34.05;26.26
22031;BME280;11179;52.106;21.024;2023-07-24T08:59:00;99588.50;;;34.25;25.91
22031;BME280;11179;52.106;21.024;2023-07-24T09:01:26;99585.41;;;34.16;25.68
22031;BME280;11179;52.106;21.024;2023-07-24T09:03:51;99575.09;;;34.02;25.99
22031;BME280;11179;52.106;21.024;2023-07-24T09:06:16;99579.13;;;34.05;26.12
22031;BME280;11179;52.106;21.024;2023-07-24T09:08:43;99574.34;;;33.98;25.84
22031;BME280;11179;52.106;21.024;2023-07-24T09:11:10;99575.16;;;33.99;25.44
22031;BME280;11179;52.106;21.024;2023-07-24T09:13:37;99566.97;;;34.01;25.12
22031;BME280;11179;52.106;21.024;2023-07-24T09:16:02;99563.09;;;34.11;25.46
22031;BME280;11179;52.106;21.024;2023-07-24T09:18:39;99558.38;;;34.24;25.05
22031;BME280;11179;52.106;21.024;2023-07-24T09:21:05;99553.25;;;33.96;25.16
22031;BME280;11179;52.106;21.024;2023-07-24T09:23:31;99558.72;;;33.63;25.30
22031;BME280;11179;52.106;21.024;2023-07-24T09:25:56;99556.59;;;33.21;25.68
22031;BME280;11179;52.106;21.024;2023-07-24T09:28:22;99556.06;;;33.02;26.01
22031;BME280;11179;52.106;21.024;2023-07-24T09:30:55;99564.47;;;32.86;26.12
22031;BME280;11179;52.106;21.024;2023-07-24T09:33:35;99551.94;;;32.50;26.55
22031;BME280;11179;52.106;21.024;2023-07-24T09:36:05;99547.75;;;32.31;27.07
22031;BME280;11179;52.106;21.024;2023-07-24T09:38:34;99543.09;;;32.10;26.96
22031;BME280;11179;52.106;21.024;2023-07-24T09:41:01;99539.59;;;31.99;27.47
22031;BME280;11179;52.106;21.024;2023-07-24T09:43:27;99532.94;;;31.75;27.59
22031;BME280;11179;52.106;21.024;2023-07-24T09:45:54;99535.97;;;31.57;27.95
22031;BME280;11179;52.106;21.024;2023-07-24T09:48:21;99539.69;;;31.51;27.83
22031;BME280;11179;52.106;21.024;2023-07-24T09:50:48;99531.28;;;31.40;28.11
22031;BME280;11179;52.106;21.024;2023-07-24T09:53:18;99522.00;;;31.36;28.56
22031;BME280;11179;52.106;21.024;2023-07-24T09:55:57;99514.41;;;31.26;28.12
22031;BME280;11179;52.106;21.024;2023-07-24T09:58:24;99518.94;;;31.13;27.89
22031;BME280;11179;52.106;21.024;2023-07-24T10:00:50;99513.72;;;31.08;28.03
22031;BME280;11179;52.106;21.024;2023-07-24T10:03:16;99512.94;;;31.04;28.88
22031;BME280;11179;52.106;21.024;2023-07-24T10:05:46;99511.66;;;31.12;28.98
22031;BME280;11179;52.106;21.024;2023-07-24T10:08:14;99482.94;;;31.06;28.38
22031;BME280;11179;52.106;21.024;2023-07-24T10:10:39;99499.97;;;31.03;28.91
22031;BME280;11179;52.106;21.024;2023-07-24T10:13:06;99508.66;;;30.85;28.66
22031;BME280;11179;52.106;21.024;2023-07-24T10:15:32;99502.47;;;30.97;28.06
22031;BME280;11179;52.106;21.024;2023-07-24T10:18:02;99502.88;;;30.96;28.42
22031;BME280;11179;52.106;21.024;2023-07-24T10:20:33;99500.22;;;31.26;28.98
22031;BME280;11179;52.106;21.024;2023-07-24T10:23:01;99501.75;;;31.72;28.73
22031;BME280;11179;52.106;21.024;2023-07-24T10:25:31;99499.78;;;32.06;28.60
22031;BME280;11179;52.106;21.024;2023-07-24T10:28:05;99494.25;;;32.22;28.21
22031;BME280;11179;52.106;21.024;2023-07-24T10:30:36;99493.31;;;32.02;28.15
22031;BME280;11179;52.106;21.024;2023-07-24T10:33:20;99480.38;;;31.63;28.19
22031;BME280;11179;52.106;21.024;2023-07-24T10:35:48;99491.78;;;31.56;28.63
22031;BME280;11179;52.106;21.024;2023-07-24T10:38:15;99489.34;;;31.58;28.20
22031;BME280;11179;52.106;21.024;2023-07-24T10:40:42;99481.31;;;31.53;27.87
22031;BME280;11179;52.106;21.024;2023-07-24T10:43:13;99468.41;;;31.45;28.02
22031;BME280;11179;52.106;21.024;2023-07-24T10:45:45;99470.84;;;31.43;27.69
22031;BME280;11179;52.106;21.024;2023-07-24T10:48:12;99463.81;;;31.58;28.09
22031;BME280;11179;52.106;21.024;2023-07-24T10:50:41;99458.50;;;31.64;27.91
22031;BME280;11179;52.106;21.024;2023-07-24T10:53:08;99456.28;;;31.82;27.98
22031;BME280;11179;52.106;21.024;2023-07-24T10:55:34;99456.00;;;32.04;27.63
22031;BME280;11179;52.106;21.024;2023-07-24T10:58:00;99452.25;;;32.10;27.51
22031;BME280;11179;52.106;21.024;2023-07-24T11:00:26;99450.88;;;31.91;26.71
22031;BME280;11179;52.106;21.024;2023-07-24T11:02:53;99440.13;;;31.72;26.57
22031;BME280;11179;52.106;21.024;2023-07-24T11:05:20;99450.53;;;31.86;27.07
22031;BME280;11179;52.106;21.024;2023-07-24T11:07:46;99451.63;;;32.26;26.79
22031;BME280;11179;52.106;21.024;2023-07-24T11:10:19;99452.28;;;32.64;27.09
22031;BME280;11179;52.106;21.024;2023-07-24T11:12:45;99454.41;;;32.87;26.97
22031;BME280;11179;52.106;21.024;2023-07-24T11:15:12;99435.09;;;33.21;26.54
22031;BME280;11179;52.106;21.024;2023-07-24T11:17:39;99438.41;;;33.16;26.92
22031;BME280;11179;52.106;21.024;2023-07-24T11:20:12;99435.53;;;32.96;26.90
22031;BME280;11179;52.106;21.024;2023-07-24T11:22:39;99437.59;;;32.69;26.34
22031;BME280;11179;52.106;21.024;2023-07-24T11:25:05;99445.75;;;32.40;26.90
22031;BME280;11179;52.106;21.024;2023-07-24T11:27:32;99440.19;;;32.03;27.52
22031;BME280;11179;52.106;21.024;2023-07-24T11:29:57;99436.59;;;31.65;27.25
22031;BME280;11179;52.106;21.024;2023-07-24T11:32:23;99430.94;;;31.27;27.86
22031;BME280;11179;52.106;21.024;2023-07-24T11:34:49;99418.97;;;31.05;28.04
22031;BME280;11179;52.106;21.024;2023-07-24T11:37:17;99423.44;;;31.03;28.05
22031;BME280;11179;52.106;21.024;2023-07-24T11:39:55;99423.28;;;31.24;28.71
22031;BME280;11179;52.106;21.024;2023-07-24T11:42:20;99411.78;;;31.38;28.04
22031;BME280;11179;52.106;21.024;2023-07-24T11:44:51;99414.03;;;31.54;28.10
22031;BME280;11179;52.106;21.024;2023-07-24T11:47:16;99416.72;;;31.65;27.97
22031;BME280;11179;52.106;21.024;2023-07-24T11:49:42;99409.50;;;31.56;27.87
22031;BME280;11179;52.106;21.024;2023-07-24T11:52:13;99406.88;;;31.73;27.79
22031;BME280;11179;52.106;21.024;2023-07-24T11:54:41;99405.47;;;31.91;27.44
22031;BME280;11179;52.106;21.024;2023-07-24T11:57:15;99392.53;;;31.87;27.89
22031;BME280;11179;52.106;21.024;2023-07-24T11:59:44;99397.47;;;31.83;27.93
22031;BME280;11179;52.106;21.024;2023-07-24T12:02:10;99389.59;;;31.63;27.66
22031;BME280;11179;52.106;21.024;2023-07-24T12:04:36;99390.69;;;31.39;27.90
22031;BME280;11179;52.106;21.024;2023-07-24T12:07:07;99387.72;;;31.12;28.33
22031;BME280;11179;52.106;21.024;2023-07-24T12:09:33;99379.78;;;30.97;28.36
22031;BME280;11179;52.106;21.024;2023-07-24T12:11:58;99383.06;;;30.91;28.69
22031;BME280;11179;52.106;21.024;2023-07-24T12:14:24;99377.88;;;30.86;28.52
22031;BME280;11179;52.106;21.024;2023-07-24T12:17:00;99379.78;;;30.97;28.59
22031;BME280;11179;52.106;21.024;2023-07-24T12:19:25;99365.06;;;31.09;28.74
22031;BME280;11179;52.106;21.024;2023-07-24T12:21:51;99362.53;;;31.18;28.77
22031;BME280;11179;52.106;21.024;2023-07-24T12:24:16;99366.66;;;31.13;28.54
22031;BME280;11179;52.106;21.024;2023-07-24T12:26:41;99367.53;;;31.07;28.64
22031;BME280;11179;52.106;21.024;2023-07-24T12:29:07;99361.56;;;30.94;28.75
22031;BME280;11179;52.106;21.024;2023-07-24T12:31:32;99349.94;;;30.85;28.37
22031;BME280;11179;52.106;21.024;2023-07-24T12:33:57;99346.59;;;30.93;28.63
22031;BME280;11179;52.106;21.024;2023-07-24T12:36:23;99349.00;;;30.99;28.79
22031;BME280;11179;52.106;21.024;2023-07-24T12:38:48;99336.44;;;31.00;29.11
22031;BME280;11179;52.106;21.024;2023-07-24T12:41:14;99335.50;;;31.10;28.72
22031;BME280;11179;52.106;21.024;2023-07-24T12:43:39;99327.06;;;31.03;29.05
22031;BME280;11179;52.106;21.024;2023-07-24T12:46:05;99329.53;;;31.01;28.93
22031;BME280;11179;52.106;21.024;2023-07-24T12:48:30;99327.97;;;30.92;29.02
22031;BME280;11179;52.106;21.024;2023-07-24T12:50:56;99330.06;;;30.88;28.63